NOTL Parkway

*Note: All times are displayed in the local standard time of the station location.
**Rain - Equipment is designed to accurately record liquid precipitation; under conditions when precipitation is not in liquid form, the data displayed may not properly reflect rainfall values.

Date Max Temp
(°C)
Min Temp
(°C)
Avg Temp
(°C)
Rain (mm) Avg RH (%)
Mon, Apr 23, 2018 18.2 -0.9 8.5 0.0 60.4
Sun, Apr 22, 2018 16.1 -2.7 7.6 0.0 54.9
Sat, Apr 21, 2018 13.7 -3.3 5.8 0.0 57.4
Fri, Apr 20, 2018 8.1 -1.2 3.1 0.0 59.6
Thu, Apr 19, 2018 4.6 1.1 2.4 0.0 69.1
Wed, Apr 18, 2018 4.3 0.9 2.5 0.0 80.1
Tue, Apr 17, 2018 1.5 -0.8 0.7 0.6 79.9
DateTime Avg Temp (°C) Rain (mm) RH (%)
Tue, Apr 24, 2018 18:00 13.1 0.6 84.3
Tue, Apr 24, 2018 17:00 13.3 0.0 69.5
Tue, Apr 24, 2018 16:00 12.3 0.0 65.0
Tue, Apr 24, 2018 15:00 12.5 0.0 64.8
Tue, Apr 24, 2018 14:00 15.4 0.0 53.3
Tue, Apr 24, 2018 13:00 19.1 0.0 40.3
Tue, Apr 24, 2018 12:00 16.6 0.0 43.8
Tue, Apr 24, 2018 11:00 16.1 0.0 54.8
Tue, Apr 24, 2018 10:00 14.9 0.0 59.5
Tue, Apr 24, 2018 09:00 14.7 0.0 57.3
Tue, Apr 24, 2018 08:00 12.8 0.0 64.8
Tue, Apr 24, 2018 07:00 9.2 0.0 74.5
Tue, Apr 24, 2018 06:00 4.7 0.0 85.3
Tue, Apr 24, 2018 05:00 4.2 0.0 88.8
Tue, Apr 24, 2018 04:00 3.9 0.0 89.8
Tue, Apr 24, 2018 03:00 4.2 0.0 88.3
Tue, Apr 24, 2018 02:00 4.8 0.0 84.3
Tue, Apr 24, 2018 01:00 5.1 0.0 81.5
Tue, Apr 24, 2018 00:00 5.4 0.0 81.3
Mon, Apr 23, 2018 23:00 5.8 0.0 79.8
Mon, Apr 23, 2018 22:00 6.1 0.0 75.3
Mon, Apr 23, 2018 21:00 6.7 0.0 68.0
Mon, Apr 23, 2018 20:00 9.0 0.0 60.0
Mon, Apr 23, 2018 19:00 13.1 0.0 45.5
Mon, Apr 23, 2018 18:00 14.4 0.0 43.3
Mon, Apr 23, 2018 17:00 17.0 0.0 34.3
Mon, Apr 23, 2018 16:00 17.3 0.0 31.3
Mon, Apr 23, 2018 15:00 15.8 0.0 36.5
Mon, Apr 23, 2018 14:00 14.7 0.0 41.5
Mon, Apr 23, 2018 13:00 14.9 0.0 41.5
Mon, Apr 23, 2018 12:00 16.1 0.0 41.0
Mon, Apr 23, 2018 11:00 15.1 0.0 40.8
Mon, Apr 23, 2018 10:00 12.6 0.0 44.8
Mon, Apr 23, 2018 09:00 10.0 0.0 47.5
Mon, Apr 23, 2018 08:00 4.2 0.0 69.3
Mon, Apr 23, 2018 07:00 -0.2 0.0 85.0
Mon, Apr 23, 2018 06:00 -0.5 0.0 86.8
Mon, Apr 23, 2018 05:00 0.1 0.0 84.5
Mon, Apr 23, 2018 04:00 1.0 0.0 84.8
Mon, Apr 23, 2018 03:00 0.4 0.0 88.0
Mon, Apr 23, 2018 02:00 1.7 0.0 76.0
Mon, Apr 23, 2018 01:00 3.3 0.0 63.8
Mon, Apr 23, 2018 00:00 4.1 0.0 65.0
Sun, Apr 22, 2018 23:00 5.2 0.0 61.5
Sun, Apr 22, 2018 22:00 6.4 0.0 49.5
Sun, Apr 22, 2018 21:00 9.7 0.0 43.3
Sun, Apr 22, 2018 20:00 14.4 0.0 27.3
Sun, Apr 22, 2018 19:00 15.8 0.0 23.5


asterix Register now to access more data! asterix